createdAt,value
2023-02-14T00:00:44.403Z,2.04
2023-02-14T00:03:30.870Z,1.96
2023-02-14T00:06:18.722Z,1.85
2023-02-14T00:09:06.217Z,1.88
2023-02-14T00:11:52.957Z,1.83
2023-02-14T00:14:57.581Z,1.82
2023-02-14T00:17:44.078Z,1.79
2023-02-14T00:20:30.874Z,1.69
2023-02-14T00:23:18.702Z,1.68
2023-02-14T00:26:05.453Z,1.68
2023-02-14T00:28:51.818Z,1.63
2023-02-14T00:31:38.835Z,1.67
2023-02-14T00:34:26.022Z,1.53
2023-02-14T00:37:12.684Z,1.50
2023-02-14T00:40:00.572Z,1.58
2023-02-14T00:42:47.023Z,1.56
2023-02-14T00:45:34.437Z,1.63
2023-02-14T00:48:21.218Z,1.60
2023-02-14T00:51:08.164Z,1.67
2023-02-14T00:53:54.679Z,1.62
2023-02-14T00:56:42.702Z,1.58
2023-02-14T00:59:29.047Z,1.60
2023-02-14T01:02:15.644Z,1.66
2023-02-14T01:05:02.121Z,1.79
2023-02-14T01:07:48.810Z,1.87
2023-02-14T01:10:37.363Z,1.86
2023-02-14T01:13:25.322Z,1.91
2023-02-14T01:16:15.775Z,1.83
2023-02-14T01:19:02.369Z,1.78
2023-02-14T01:21:48.868Z,1.82
2023-02-14T01:24:36.732Z,1.81
2023-02-14T01:27:23.142Z,1.82
2023-02-14T01:30:12.770Z,1.76
2023-02-14T01:33:00.128Z,1.68
2023-02-14T01:35:47.180Z,1.75
2023-02-14T01:38:34.848Z,1.72
2023-02-14T01:41:21.724Z,1.66
2023-02-14T01:44:29.501Z,1.63
2023-02-14T01:47:18.368Z,1.72
2023-02-14T01:50:10.588Z,1.74
2023-02-14T01:53:01.456Z,1.75
2023-02-14T01:55:52.806Z,1.85
2023-02-14T01:58:45.280Z,1.97
2023-02-14T02:01:32.494Z,1.86
2023-02-14T02:04:25.668Z,1.79
2023-02-14T02:07:16.954Z,1.69
2023-02-14T02:10:07.996Z,1.70
2023-02-14T02:12:54.955Z,1.69
2023-02-14T02:15:48.688Z,1.68
2023-02-14T02:18:48.638Z,1.65
2023-02-14T02:22:12.669Z,1.65
2023-02-14T02:25:12.490Z,1.87
2023-02-14T02:28:34.374Z,2.04
2023-02-14T02:31:32.030Z,2.06
2023-02-14T02:34:56.889Z,1.99
2023-02-14T02:37:59.929Z,1.93
2023-02-14T02:40:51.714Z,1.80
2023-02-14T02:43:45.960Z,1.68
2023-02-14T02:46:49.508Z,1.60
2023-02-14T02:50:04.644Z,1.60
2023-02-14T02:53:06.204Z,1.69
2023-02-14T02:56:16.534Z,1.73
2023-02-14T02:59:07.193Z,1.76
2023-02-14T03:01:56.135Z,1.74
2023-02-14T03:04:54.723Z,1.74
2023-02-14T03:07:43.047Z,1.71
2023-02-14T03:10:37.264Z,1.64
2023-02-14T03:13:37.133Z,1.59
2023-02-14T03:16:29.355Z,1.63
2023-02-14T03:19:50.995Z,1.72
2023-02-14T03:22:49.732Z,1.77
2023-02-14T03:25:46.102Z,1.72
2023-02-14T03:28:43.698Z,1.79
2023-02-14T03:31:35.359Z,1.80
2023-02-14T03:34:31.464Z,1.86
2023-02-14T03:37:24.103Z,1.86
2023-02-14T03:40:14.750Z,1.73
2023-02-14T03:43:08.324Z,1.65
2023-02-14T03:46:00.449Z,1.70
2023-02-14T03:48:49.204Z,1.65
2023-02-14T03:51:36.835Z,1.60
2023-02-14T03:54:25.307Z,1.50
2023-02-14T03:57:20.339Z,1.45
2023-02-14T04:00:10.474Z,1.39
2023-02-14T04:03:04.749Z,1.28
2023-02-14T04:05:52.416Z,1.29
2023-02-14T04:08:39.604Z,1.29
2023-02-14T04:11:26.559Z,1.23
2023-02-14T04:14:13.153Z,1.18
2023-02-14T04:17:18.779Z,1.17
2023-02-14T04:20:06.534Z,1.15
2023-02-14T04:22:52.931Z,1.29
2023-02-14T04:25:42.934Z,1.37
2023-02-14T04:28:29.472Z,1.45
2023-02-14T04:31:17.443Z,1.46
2023-02-14T04:34:05.715Z,1.36
2023-02-14T04:36:52.215Z,1.32
2023-02-14T04:39:39.168Z,1.34
2023-02-14T04:42:26.024Z,1.29
2023-02-14T04:45:12.704Z,1.31
2023-02-14T04:47:59.069Z,1.37
2023-02-14T04:50:52.532Z,1.30
2023-02-14T04:53:40.464Z,1.21
2023-02-14T04:56:27.149Z,1.22
2023-02-14T04:59:14.421Z,1.28
2023-02-14T05:02:01.297Z,1.39
2023-02-14T05:04:49.737Z,1.34
2023-02-14T05:07:37.455Z,1.31
2023-02-14T05:10:24.042Z,1.32
2023-02-14T05:13:10.582Z,1.28
2023-02-14T05:15:57.570Z,1.28
2023-02-14T05:18:44.249Z,1.27
2023-02-14T05:21:33.112Z,1.34
2023-02-14T05:24:21.102Z,1.34
2023-02-14T05:27:07.786Z,1.34
2023-02-14T05:29:54.572Z,1.23
2023-02-14T05:32:41.206Z,1.22
2023-02-14T05:35:28.186Z,1.22
2023-02-14T05:38:14.942Z,1.17
2023-02-14T05:41:03.269Z,1.14
2023-02-14T05:43:49.401Z,1.12
2023-02-14T05:46:36.006Z,1.04
2023-02-14T05:49:22.854Z,1.07
2023-02-14T05:52:09.570Z,1.05
2023-02-14T05:54:55.988Z,1.00
2023-02-14T05:57:44.031Z,1.00
2023-02-14T06:00:30.593Z,1.01
2023-02-14T06:03:17.372Z,0.97
2023-02-14T06:06:04.484Z,0.92
2023-02-14T06:08:50.792Z,0.82
2023-02-14T06:11:37.061Z,0.81
2023-02-14T06:14:24.909Z,0.78
2023-02-14T06:17:11.835Z,0.72
2023-02-14T06:19:58.029Z,0.67
2023-02-14T06:22:44.621Z,0.66
2023-02-14T06:25:31.366Z,0.56
2023-02-14T06:28:17.902Z,0.48
2023-02-14T06:31:06.248Z,0.46
2023-02-14T06:33:53.487Z,0.39
2023-02-14T06:36:40.259Z,0.24
2023-02-14T06:39:27.596Z,0.17
2023-02-14T06:42:14.483Z,0.21
2023-02-14T06:45:02.516Z,0.24
2023-02-14T06:47:50.511Z,0.28
2023-02-14T06:50:37.141Z,0.18
2023-02-14T06:53:23.838Z,0.15
2023-02-14T06:56:10.658Z,0.11
2023-02-14T06:58:57.295Z,0.11
2023-02-14T07:01:44.091Z,0.05
2023-02-14T07:04:32.449Z,0.09
2023-02-14T07:07:19.180Z,0.08
2023-02-14T07:10:06.943Z,0.05
2023-02-14T07:12:53.684Z,0.04
2023-02-14T07:15:40.329Z,-0.05
2023-02-14T07:18:27.132Z,0.03
2023-02-14T07:21:15.145Z,-0.05
2023-02-14T07:24:01.982Z,-0.02
2023-02-14T07:26:48.897Z,0.14
2023-02-14T07:29:35.999Z,0.08
2023-02-14T07:32:23.470Z,0.10
2023-02-14T07:35:10.550Z,0.13
2023-02-14T07:37:59.088Z,0.07
2023-02-14T07:40:45.821Z,0.16
2023-02-14T07:43:34.381Z,0.27
2023-02-14T07:46:21.480Z,0.33
2023-02-14T07:49:08.525Z,0.36
2023-02-14T07:51:55.208Z,0.42
2023-02-14T07:54:43.150Z,0.43
2023-02-14T07:57:29.826Z,0.50
2023-02-14T08:00:17.071Z,0.54
2023-02-14T08:03:03.940Z,0.55
2023-02-14T08:05:57.199Z,0.67
2023-02-14T08:08:44.156Z,0.77
2023-02-14T08:11:49.788Z,0.94
2023-02-14T08:14:36.575Z,0.94
2023-02-14T08:17:23.178Z,1.11
2023-02-14T08:20:10.490Z,1.00
2023-02-14T08:22:57.597Z,1.10
2023-02-14T08:25:44.313Z,1.21
2023-02-14T08:28:33.039Z,1.40
2023-02-14T08:31:34.335Z,1.43
2023-02-14T08:34:21.695Z,1.53
2023-02-14T08:37:08.433Z,1.67
2023-02-14T08:39:55.121Z,1.87
2023-02-14T08:42:41.767Z,2.03
2023-02-14T08:45:29.832Z,2.14
2023-02-14T08:48:16.707Z,2.40
2023-02-14T08:51:06.697Z,2.70
2023-02-14T08:53:54.545Z,2.87
2023-02-14T08:56:41.715Z,2.94
2023-02-14T08:59:29.037Z,3.28
2023-02-14T09:02:17.254Z,3.54
2023-02-14T09:05:03.838Z,3.61
2023-02-14T09:07:50.758Z,3.71
2023-02-14T09:10:37.819Z,3.90
2023-02-14T09:13:24.701Z,4.09
2023-02-14T09:16:12.948Z,4.23
2023-02-14T09:19:00.965Z,4.32
2023-02-14T09:21:47.642Z,4.35
2023-02-14T09:24:36.566Z,4.65
2023-02-14T09:27:23.213Z,4.83
2023-02-14T09:30:11.623Z,5.03
2023-02-14T09:32:58.436Z,5.18
2023-02-14T09:35:46.489Z,5.08
2023-02-14T09:38:33.398Z,5.25
2023-02-14T09:41:50.106Z,5.45
2023-02-14T09:44:40.875Z,5.65
2023-02-14T09:47:37.041Z,5.84
2023-02-14T09:50:26.651Z,6.09
2023-02-14T09:53:22.710Z,6.16
2023-02-14T09:56:17.905Z,6.52
2023-02-14T09:59:14.150Z,6.69
2023-02-14T10:02:20.015Z,6.96
2023-02-14T10:05:14.059Z,6.94
2023-02-14T10:08:11.430Z,7.42
2023-02-14T10:11:05.339Z,7.46
2023-02-14T10:13:56.070Z,7.72
2023-02-14T10:16:47.207Z,7.84
2023-02-14T10:19:39.398Z,7.96
2023-02-14T10:22:42.707Z,7.94
2023-02-14T10:25:35.505Z,8.07
2023-02-14T10:28:31.157Z,8.16
2023-02-14T10:31:22.817Z,8.25
2023-02-14T10:34:17.093Z,8.45
2023-02-14T10:37:25.446Z,8.60
2023-02-14T10:40:36.139Z,8.61
2023-02-14T10:43:35.863Z,8.68
2023-02-14T10:46:34.834Z,8.96
2023-02-14T10:49:35.511Z,9.11
2023-02-14T10:52:27.774Z,9.27
2023-02-14T10:55:31.987Z,9.23
2023-02-14T10:58:22.235Z,9.52
2023-02-14T11:01:13.618Z,9.63
2023-02-14T11:04:06.552Z,9.60
2023-02-14T11:06:53.919Z,9.86
2023-02-14T11:09:40.577Z,10.10
2023-02-14T11:12:35.594Z,10.00
2023-02-14T11:15:27.556Z,10.00
2023-02-14T11:18:25.773Z,10.02
2023-02-14T11:21:15.031Z,9.97
2023-02-14T11:24:03.525Z,9.98
2023-02-14T11:26:52.997Z,10.18
2023-02-14T11:29:47.946Z,10.03
2023-02-14T11:32:37.646Z,10.02
2023-02-14T11:35:33.900Z,10.33
2023-02-14T11:38:31.766Z,10.59
2023-02-14T11:41:18.717Z,10.71
2023-02-14T11:44:24.263Z,10.79
2023-02-14T11:47:26.327Z,10.81
2023-02-14T11:50:23.240Z,10.61
2023-02-14T11:53:13.481Z,10.92
2023-02-14T11:56:01.276Z,10.76
2023-02-14T11:58:52.430Z,11.05
2023-02-14T12:01:39.750Z,11.32
2023-02-14T12:04:38.228Z,11.46
2023-02-14T12:07:34.682Z,11.46
2023-02-14T12:10:28.503Z,11.56
2023-02-14T12:13:26.051Z,11.71
2023-02-14T12:16:23.303Z,11.83
2023-02-14T12:19:18.830Z,11.49
2023-02-14T12:22:07.343Z,11.63
2023-02-14T12:25:03.270Z,11.73
2023-02-14T12:27:58.186Z,11.58
2023-02-14T12:30:44.675Z,11.67
2023-02-14T12:33:31.334Z,11.45
2023-02-14T12:36:34.874Z,11.55
2023-02-14T12:39:32.824Z,11.70
2023-02-14T12:42:34.405Z,11.75
2023-02-14T12:45:31.489Z,11.85
2023-02-14T12:48:30.179Z,11.99
2023-02-14T12:51:25.005Z,11.74
2023-02-14T12:54:33.444Z,11.78
2023-02-14T12:57:32.777Z,12.10
2023-02-14T13:00:36.190Z,12.41
2023-02-14T13:03:44.965Z,12.46
2023-02-14T13:06:35.335Z,12.27
2023-02-14T13:09:35.722Z,12.67
2023-02-14T13:12:33.294Z,12.53
2023-02-14T13:15:28.698Z,12.33
2023-02-14T13:18:27.364Z,12.22
2023-02-14T13:21:18.845Z,12.37
2023-02-14T13:24:16.096Z,12.76
2023-02-14T13:27:08.184Z,12.46
2023-02-14T13:29:58.926Z,12.39
2023-02-14T13:32:49.427Z,12.32
2023-02-14T13:35:36.161Z,12.50
2023-02-14T13:38:25.152Z,12.55
2023-02-14T13:41:13.052Z,12.38
2023-02-14T13:44:01.697Z,12.63
2023-02-14T13:46:52.883Z,12.38
2023-02-14T13:49:47.794Z,12.36
2023-02-14T13:52:45.988Z,12.25
2023-02-14T13:55:36.483Z,12.08
2023-02-14T13:58:25.800Z,12.37
2023-02-14T14:01:40.643Z,12.41
2023-02-14T14:04:38.718Z,12.44
2023-02-14T14:07:30.697Z,12.15
2023-02-14T14:10:44.250Z,12.39
2023-02-14T14:13:56.442Z,12.21
2023-02-14T14:16:58.810Z,12.17
2023-02-14T14:19:47.405Z,12.29
2023-02-14T14:22:47.722Z,12.19
2023-02-14T14:25:37.447Z,12.36
2023-02-14T14:28:28.107Z,12.51
2023-02-14T14:31:15.039Z,12.34
2023-02-14T14:34:02.450Z,12.26
2023-02-14T14:36:49.058Z,12.35
2023-02-14T14:39:39.914Z,12.36
2023-02-14T14:42:30.498Z,12.01
2023-02-14T14:45:23.901Z,12.18
2023-02-14T14:48:14.363Z,12.05
2023-02-14T14:51:01.602Z,12.15
2023-02-14T14:53:52.128Z,12.06
2023-02-14T14:56:49.955Z,11.90
2023-02-14T14:59:39.640Z,12.01
2023-02-14T15:02:30.463Z,12.06
2023-02-14T15:05:26.010Z,12.02
2023-02-14T15:08:23.931Z,12.11
2023-02-14T15:11:34.500Z,12.00
2023-02-14T15:14:24.665Z,11.87
2023-02-14T15:17:15.590Z,11.91
2023-02-14T15:20:04.017Z,12.05
2023-02-14T15:22:53.607Z,11.85
2023-02-14T15:25:44.573Z,11.65
2023-02-14T15:28:33.649Z,11.70
2023-02-14T15:31:22.288Z,11.73
2023-02-14T15:34:10.874Z,11.79
2023-02-14T15:37:03.568Z,11.76
2023-02-14T15:39:53.314Z,11.57
2023-02-14T15:42:44.535Z,11.51
2023-02-14T15:45:32.491Z,11.63
2023-02-14T15:48:25.255Z,11.45
2023-02-14T15:51:19.894Z,11.46
2023-02-14T15:54:08.545Z,11.47
2023-02-14T15:56:56.732Z,11.40
2023-02-14T15:59:43.817Z,11.48
2023-02-14T16:02:36.211Z,11.43
2023-02-14T16:05:27.518Z,11.57
2023-02-14T16:08:29.410Z,11.52
2023-02-14T16:11:29.851Z,11.83
2023-02-14T16:14:32.254Z,11.56
2023-02-14T16:17:33.054Z,11.29
2023-02-14T16:20:22.690Z,11.10
2023-02-14T16:23:18.649Z,11.09
2023-02-14T16:26:07.884Z,10.61
2023-02-14T16:28:54.707Z,10.27
2023-02-14T16:32:01.233Z,10.18
2023-02-14T16:34:51.339Z,9.85
2023-02-14T16:37:39.706Z,9.78
2023-02-14T16:40:29.776Z,9.61
2023-02-14T16:43:17.804Z,9.38
2023-02-14T16:46:04.842Z,9.24
2023-02-14T16:48:52.362Z,9.04
2023-02-14T16:51:42.628Z,8.78
2023-02-14T16:54:29.445Z,8.61
2023-02-14T16:57:21.573Z,8.38
2023-02-14T17:00:10.242Z,8.13
2023-02-14T17:03:04.477Z,8.01
2023-02-14T17:05:51.824Z,7.85
2023-02-14T17:08:40.070Z,7.68
2023-02-14T17:11:27.879Z,7.55
2023-02-14T17:14:21.346Z,7.41
2023-02-14T17:17:07.905Z,7.30
2023-02-14T17:19:54.883Z,7.18
2023-02-14T17:22:42.537Z,7.07
2023-02-14T17:25:29.232Z,6.95
2023-02-14T17:28:15.978Z,6.82
2023-02-14T17:31:04.637Z,6.71
2023-02-14T17:33:51.564Z,6.61
2023-02-14T17:36:38.579Z,6.51
2023-02-14T17:39:25.399Z,6.41
2023-02-14T17:42:12.249Z,6.33
2023-02-14T17:44:59.181Z,6.19
2023-02-14T17:47:47.449Z,6.08
2023-02-14T17:50:34.509Z,5.99
2023-02-14T17:53:21.151Z,5.94
2023-02-14T17:56:10.712Z,5.88
2023-02-14T17:58:57.480Z,5.85
2023-02-14T18:01:44.104Z,5.80
2023-02-14T18:04:34.838Z,5.72
2023-02-14T18:07:23.801Z,5.69
2023-02-14T18:10:11.583Z,5.60
2023-02-14T18:12:58.087Z,5.56
2023-02-14T18:15:45.994Z,5.43
2023-02-14T18:18:33.258Z,5.42
2023-02-14T18:21:22.860Z,5.56
2023-02-14T18:24:10.786Z,5.67
2023-02-14T18:26:57.291Z,5.65
2023-02-14T18:29:44.623Z,5.60
2023-02-14T18:32:30.916Z,5.55
2023-02-14T18:35:17.488Z,5.51
2023-02-14T18:38:05.903Z,5.54
2023-02-14T18:40:52.626Z,5.66
2023-02-14T18:43:40.950Z,5.81
2023-02-14T18:46:30.609Z,5.74
2023-02-14T18:49:17.646Z,5.68
2023-02-14T18:52:04.948Z,5.56
2023-02-14T18:54:53.274Z,5.43
2023-02-14T18:57:40.323Z,5.47
2023-02-14T19:00:27.166Z,5.55
2023-02-14T19:03:14.037Z,5.55
2023-02-14T19:06:00.692Z,5.48
2023-02-14T19:08:48.092Z,5.41
2023-02-14T19:11:36.127Z,5.27
2023-02-14T19:14:22.754Z,5.11
2023-02-14T19:17:09.386Z,4.99
2023-02-14T19:19:56.504Z,4.92
2023-02-14T19:22:43.300Z,4.79
2023-02-14T19:25:32.573Z,4.70
2023-02-14T19:28:20.675Z,4.75
2023-02-14T19:31:07.931Z,4.84
2023-02-14T19:33:54.847Z,4.63
2023-02-14T19:36:41.449Z,4.57
2023-02-14T19:39:29.501Z,4.50
2023-02-14T19:42:15.911Z,4.41
2023-02-14T19:45:04.043Z,4.51
2023-02-14T19:47:51.128Z,4.65
2023-02-14T19:50:39.217Z,4.59
2023-02-14T19:53:25.441Z,4.54
2023-02-14T19:56:12.450Z,4.40
2023-02-14T19:58:59.713Z,4.31
2023-02-14T20:01:49.070Z,4.20
2023-02-14T20:04:35.449Z,4.23
2023-02-14T20:07:22.187Z,4.10
2023-02-14T20:10:09.088Z,4.04
2023-02-14T20:12:55.726Z,3.97
2023-02-14T20:15:45.177Z,3.87
2023-02-14T20:18:35.667Z,3.82
2023-02-14T20:21:25.407Z,3.69
2023-02-14T20:24:13.335Z,3.63
2023-02-14T20:27:02.277Z,3.62
2023-02-14T20:29:48.958Z,3.53
2023-02-14T20:32:36.296Z,3.52
2023-02-14T20:35:24.610Z,3.54
2023-02-14T20:38:11.795Z,3.44
2023-02-14T20:40:58.850Z,3.28
2023-02-14T20:43:45.654Z,3.24
2023-02-14T20:46:32.889Z,3.26
2023-02-14T20:49:19.720Z,3.29
2023-02-14T20:52:07.664Z,3.28
2023-02-14T20:54:54.014Z,3.26
2023-02-14T20:57:40.503Z,3.20
2023-02-14T21:00:27.912Z,3.14
2023-02-14T21:03:14.791Z,3.06
2023-02-14T21:06:01.296Z,2.98
2023-02-14T21:08:49.894Z,3.06
2023-02-14T21:11:36.361Z,3.17
2023-02-14T21:14:23.407Z,3.28
2023-02-14T21:17:10.210Z,3.22
2023-02-14T21:19:56.768Z,3.16
2023-02-14T21:22:43.326Z,3.09
2023-02-14T21:25:32.906Z,3.01
2023-02-14T21:28:19.544Z,2.97
2023-02-14T21:31:07.999Z,2.89
2023-02-14T21:33:56.531Z,2.82
2023-02-14T21:36:43.626Z,2.74
2023-02-14T21:39:31.061Z,2.69
2023-02-14T21:42:21.161Z,2.66
2023-02-14T21:45:26.250Z,2.63
2023-02-14T21:48:30.624Z,2.55
2023-02-14T21:51:17.492Z,2.60
2023-02-14T21:54:04.123Z,2.57
2023-02-14T21:56:50.778Z,2.54
2023-02-14T21:59:40.248Z,2.47
2023-02-14T22:02:26.969Z,2.50
2023-02-14T22:05:13.206Z,2.45
2023-02-14T22:07:59.827Z,2.48
2023-02-14T22:10:46.429Z,2.37
2023-02-14T22:13:32.996Z,2.27
2023-02-14T22:16:22.122Z,2.28
2023-02-14T22:19:10.014Z,2.24
2023-02-14T22:21:56.611Z,2.25
2023-02-14T22:24:43.251Z,2.22
2023-02-14T22:27:30.194Z,2.21
2023-02-14T22:30:16.945Z,2.11
2023-02-14T22:33:04.717Z,2.11
2023-02-14T22:35:55.389Z,2.15
2023-02-14T22:38:42.436Z,2.09
2023-02-14T22:41:28.932Z,2.09
2023-02-14T22:44:15.584Z,2.10
2023-02-14T22:47:02.204Z,2.05
2023-02-14T22:49:50.243Z,2.01
2023-02-14T22:52:36.579Z,2.03
2023-02-14T22:55:23.275Z,1.98
2023-02-14T22:58:09.879Z,1.89
2023-02-14T23:04:29.310Z,1.63
2023-02-14T23:07:17.234Z,1.58
2023-02-14T23:10:03.682Z,1.55
2023-02-14T23:13:08.018Z,1.48
2023-02-14T23:16:12.654Z,1.49
2023-02-14T23:19:17.151Z,1.50
2023-02-14T23:22:05.922Z,1.73
2023-02-14T23:24:57.072Z,1.99
2023-02-14T23:27:45.288Z,1.95
2023-02-14T23:30:31.969Z,1.93
2023-02-14T23:33:18.723Z,1.97
2023-02-14T23:36:05.526Z,1.95
2023-02-14T23:38:51.912Z,1.88
2023-02-14T23:41:49.096Z,1.79
2023-02-14T23:44:36.447Z,1.70
2023-02-14T23:47:23.204Z,1.62
2023-02-14T23:50:10.427Z,1.48
2023-02-14T23:52:57.054Z,1.49
2023-02-14T23:55:43.351Z,1.47
2023-02-14T23:58:31.136Z,1.48
